| time (UTC) | temp F | wind direction | speed MPH | gust MPH | rain 1hr in | rain 24hr in | rain mn in | humidity % | barometer mb |
| 20260507221550 | 63 | 0 | 1.0 | 5.0 | 0.00 | 0.02 | 0.02 | 50 | 1013.4 |
| 20260507221532 | 63 | 153 | 1.0 | 5.0 | 0.00 | 0.02 | 0.02 | 51 | 1009.9 |
| 20260507220046 | 62 | 162 | 0.0 | 3.0 | 0.00 | 0.02 | 0.02 | 57 | 1013.6 |
| 20260507220009 | 62 | 162 | 0.0 | 2.0 | 0.00 | 0.02 | 0.02 | 58 | 1010.1 |
| 20260507214601 | 63 | 208 | 1.0 | 4.0 | 0.00 | 0.02 | 0.02 | 55 | 1010.1 |
| 20260507214544 | 63 | 207 | 0.0 | 4.0 | 0.00 | 0.02 | 0.02 | 54 | 1013.6 |
| 20260507213047 | 61 | 344 | 2.0 | 9.0 | 0.00 | 0.02 | 0.02 | 58 | 1010.4 |
| 20260507213043 | 61 | 352 | 2.0 | 9.0 | 0.00 | 0.02 | 0.02 | 57 | 1013.8 |
| 20260507211543 | 63 | 352 | 1.0 | 4.0 | 0.00 | 0.02 | 0.02 | 50 | 1014.0 |
| 20260507211541 | 63 | 346 | 1.0 | 4.0 | 0.00 | 0.02 | 0.02 | 50 | 1010.6 |
| 20260507210042 | 65 | 339 | 3.0 | 9.0 | 0.00 | 0.02 | 0.02 | 46 | 1014.0 |
| 20260507210034 | 65 | 338 | 3.0 | 9.0 | 0.00 | 0.02 | 0.02 | 47 | 1010.6 |
| 20260507204544 | 66 | 44 | 3.0 | 9.0 | 0.00 | 0.02 | 0.02 | 49 | 1013.9 |
| 20260507204515 | 66 | 325 | 3.0 | 9.0 | 0.00 | 0.02 | 0.02 | 52 | 1010.6 |
| 20260507203108 | 64 | 340 | 2.0 | 4.0 | 0.00 | 0.02 | 0.02 | 53 | 1010.7 |
| 20260507203056 | 63 | 5 | 1.0 | 9.0 | 0.00 | 0.02 | 0.02 | 51 | 1014.2 |
| 20260507203000 | 63 | 279 | 1.0 | 5.0 | 0.00 | 0.02 | 0.02 | 51 | 1010.7 |
| 20260507201547 | 63 | 327 | 3.0 | 10.0 | 0.00 | 0.02 | 0.02 | 51 | 1014.0 |
| 20260507201543 | 63 | 259 | 3.0 | 10.0 | 0.00 | 0.02 | 0.02 | 52 | 1010.8 |
| 20260507200049 | 64 | 348 | 3.0 | 8.0 | 0.00 | 0.02 | 0.02 | 52 | 1014.1 |
| 20260507200043 | 64 | 348 | 4.0 | 9.0 | 0.00 | 0.02 | 0.02 | 53 | 1010.8 |
| 20260507194542 | 62 | 277 | 1.0 | 4.0 | 0.00 | 0.02 | 0.02 | 53 | 1014.2 |
| 20260507194513 | 62 | 246 | 1.0 | 4.0 | 0.00 | 0.02 | 0.02 | 54 | 1010.9 |
| 20260507193054 | 61 | 258 | 3.0 | 5.0 | 0.00 | 0.02 | 0.02 | 55 | 1011.0 |
| 20260507191543 | 61 | 287 | 1.0 | 7.0 | 0.00 | 0.02 | 0.02 | 55 | 1014.3 |
| 20260507191539 | 61 | 351 | 1.0 | 7.0 | 0.00 | 0.02 | 0.02 | 55 | 1011.0 |
| 20260507190045 | 62 | 221 | 2.0 | 8.0 | 0.00 | 0.02 | 0.02 | 52 | 1014.5 |
| 20260507190032 | 62 | 215 | 3.0 | 7.0 | 0.00 | 0.02 | 0.02 | 52 | 1011.2 |
| 20260507184545 | 63 | 209 | 1.0 | 7.0 | 0.00 | 0.02 | 0.02 | 53 | 1014.5 |
| 20260507184523 | 63 | 209 | 2.0 | 7.0 | 0.00 | 0.02 | 0.02 | 53 | 1011.1 |
| 20260507183104 | 61 | 221 | 0.0 | 6.0 | 0.00 | 0.02 | 0.02 | 58 | 1011.2 |
| 20260507183046 | 60 | 114 | 1.0 | 6.0 | 0.00 | 0.02 | 0.02 | 56 | 1014.5 |
| 20260507181544 | 59 | 257 | 2.0 | 4.0 | 0.00 | 0.02 | 0.02 | 56 | 1014.6 |
| 20260507181539 | 59 | 257 | 2.0 | 4.0 | 0.00 | 0.02 | 0.02 | 57 | 1011.2 |
| 20260507180046 | 59 | 74 | 2.0 | 7.0 | 0.00 | 0.02 | 0.02 | 56 | 1014.5 |
| 20260507180039 | 59 | 74 | 3.0 | 6.0 | 0.00 | 0.02 | 0.02 | 57 | 1011.1 |
| 20260507174551 | 59 | 291 | 2.0 | 9.0 | 0.00 | 0.02 | 0.02 | 57 | 1014.4 |
| 20260507174519 | 59 | 283 | 2.0 | 9.0 | 0.00 | 0.02 | 0.02 | 58 | 1011.2 |
| 20260507173051 | 59 | 0 | 1.0 | 4.0 | 0.00 | 0.02 | 0.02 | 58 | 1014.4 |
| 20260507173009 | 59 | 241 | 2.0 | 4.0 | 0.00 | 0.02 | 0.02 | 59 | 1011.2 |
| 20260507171610 | 56 | 161 | 0.0 | 3.0 | 0.00 | 0.02 | 0.02 | 67 | 1011.2 |
| 20260507171608 | 56 | 161 | 0.0 | 3.0 | 0.00 | 0.02 | 0.02 | 66 | 1014.5 |
| 20260507170055 | 57 | 147 | 1.0 | 5.0 | 0.00 | 0.02 | 0.02 | 62 | 1014.5 |
| 20260507170043 | 57 | 147 | 0.0 | 5.0 | 0.00 | 0.02 | 0.02 | 62 | 1011.3 |
| 20260507164601 | 56 | 93 | 1.0 | 3.0 | 0.00 | 0.02 | 0.02 | 64 | 1014.8 |
| 20260507164550 | 56 | 345 | 1.0 | 3.0 | 0.00 | 0.02 | 0.02 | 64 | 1011.6 |
| 20260507163046 | 55 | 352 | 1.0 | 3.0 | 0.00 | 0.02 | 0.02 | 68 | 1015.1 |
| 20260507163020 | 55 | 355 | 1.0 | 3.0 | 0.00 | 0.02 | 0.02 | 68 | 1011.9 |
| 20260507161600 | 54 | 344 | 1.0 | 3.0 | 0.00 | 0.02 | 0.02 | 68 | 1015.2 |
| 20260507161525 | 54 | 344 | 1.0 | 3.0 | 0.00 | 0.02 | 0.02 | 69 | 1012.2 |
| 20260507160058 | 55 | 301 | 2.0 | 5.0 | 0.00 | 0.02 | 0.02 | 67 | 1012.2 |
| 20260507160045 | 55 | 301 | 2.0 | 8.0 | 0.00 | 0.02 | 0.02 | 67 | 1015.2 |
| 20260507154552 | 56 | 207 | 2.0 | 6.0 | 0.00 | 0.02 | 0.02 | 65 | 1015.0 |
| 20260507154550 | 56 | 211 | 2.0 | 6.0 | 0.00 | 0.02 | 0.02 | 66 | 1011.9 |
| 20260507153051 | 55 | 244 | 2.0 | 7.0 | 0.00 | 0.02 | 0.02 | 67 | 1014.9 |
| 20260507153042 | 55 | 246 | 1.0 | 7.0 | 0.00 | 0.02 | 0.02 | 67 | 1011.9 |
| 20260507151546 | 54 | 157 | 0.0 | 3.0 | 0.00 | 0.02 | 0.02 | 74 | 1014.6 |
| 20260507151536 | 54 | 157 | 0.0 | 3.0 | 0.00 | 0.02 | 0.02 | 75 | 1011.7 |
| 20260507150049 | 53 | 155 | 1.0 | 3.0 | 0.00 | 0.02 | 0.02 | 78 | 1014.5 |
| 20260507150013 | 53 | 159 | 1.0 | 3.0 | 0.00 | 0.02 | 0.02 | 77 | 1011.4 |
| 20260507144556 | 52 | 164 | 0.0 | 2.0 | 0.00 | 0.02 | 0.02 | 80 | 1011.5 |
| 20260507144551 | 52 | 164 | 0.0 | 2.0 | 0.00 | 0.02 | 0.02 | 81 | 1014.5 |
| 20260507143100 | 49 | 176 | 0.0 | 2.0 | 0.00 | 0.02 | 0.02 | 92 | 1011.3 |
| 20260507143057 | 49 | 176 | 0.0 | 2.0 | 0.00 | 0.02 | 0.02 | 92 | 1014.3 |
| 20260507141554 | 47 | 176 | 0.0 | 3.0 | 0.00 | 0.02 | 0.02 | 93 | 1014.2 |
| 20260507141540 | 47 | 176 | 0.0 | 3.0 | 0.00 | 0.02 | 0.02 | 93 | 1011.3 |
| 20260507140049 | 46 | 176 | 0.0 | 2.0 | 0.00 | 0.02 | 0.02 | 95 | 1014.2 |
| 20260507140022 | 46 | 176 | 1.0 | 2.0 | 0.00 | 0.02 | 0.02 | 95 | 1011.4 |
| 20260507134553 | 45 | 0 | 0.0 | 1.0 | 0.01 | 0.02 | 0.02 | 96 | 1014.1 |
| 20260507134525 | 45 | 160 | 0.0 | 1.0 | 0.01 | 0.02 | 0.02 | 96 | 1011.4 |
| 20260507133102 | 44 | 160 | 0.0 | 1.0 | 0.01 | 0.02 | 0.02 | 97 | 1011.2 |
| 20260507133045 | 44 | 160 | 0.0 | 1.0 | 0.01 | 0.02 | 0.02 | 96 | 1013.9 |
| 20260507133011 | 44 | 160 | 0.0 | 1.0 | 0.01 | 0.02 | 0.02 | 97 | 1011.4 |
| 20260507131607 | 42 | 160 | 0.0 | 1.0 | 0.01 | 0.02 | 0.02 | 97 | 1011.1 |
| 20260507131544 | 42 | 0 | 0.0 | 1.0 | 0.01 | 0.02 | 0.02 | 96 | 1013.7 |
| 20260507130046 | 42 | 0 | 0.0 | 2.0 | 0.01 | 0.02 | 0.02 | 96 | 1013.6 |
| 20260507130036 | 42 | 160 | 0.0 | 2.0 | 0.01 | 0.02 | 0.02 | 96 | 1011.1 |
| 20260507124542 | 41 | 0 | 0.0 | 2.0 | 0.00 | 0.01 | 0.01 | 95 | 1013.6 |
| 20260507124526 | 42 | 160 | 0.0 | 2.0 | 0.00 | 0.01 | 0.01 | 96 | 1011.1 |
| 20260507123047 | 42 | 0 | 0.0 | 2.0 | 0.00 | 0.01 | 0.01 | 96 | 1013.4 |
| 20260507123025 | 42 | 160 | 0.0 | 1.0 | 0.00 | 0.01 | 0.01 | 96 | 1010.9 |
| 20260507121545 | 41 | 160 | 0.0 | 1.0 | 0.00 | 0.01 | 0.01 | 96 | 1013.3 |
| 20260507121512 | 41 | 160 | 0.0 | 1.0 | 0.00 | 0.01 | 0.01 | 96 | 1011.0 |
| 20260507120047 | 41 | 0 | 0.0 | 2.0 | 0.00 | 0.01 | 0.01 | 95 | 1013.1 |
| 20260507120002 | 41 | 160 | 0.0 | 2.0 | 0.00 | 0.01 | 0.01 | 96 | 1010.9 |
| 20260507114556 | 41 | 160 | 0.0 | 2.0 | 0.00 | 0.01 | 0.01 | 95 | 1010.8 |
| 20260507114543 | 41 | 0 | 0.0 | 2.0 | 0.00 | 0.01 | 0.01 | 95 | 1013.1 |
| 20260507113042 | 42 | 0 | 1.0 | 2.0 | 0.00 | 0.01 | 0.01 | 95 | 1012.9 |
| 20260507113034 | 42 | 160 | 1.0 | 2.0 | 0.00 | 0.01 | 0.01 | 95 | 1010.8 |
| 20260507111547 | 42 | 0 | 0.0 | 1.0 | 0.00 | 0.01 | 0.01 | 95 | 1012.8 |
| 20260507111522 | 42 | 160 | 0.0 | 1.0 | 0.00 | 0.01 | 0.01 | 95 | 1010.8 |
| 20260507110100 | 42 | 160 | 0.0 | 2.0 | 0.00 | 0.01 | 0.01 | 95 | 1013.0 |
| 20260507110006 | 42 | 160 | 0.0 | 2.0 | 0.00 | 0.01 | 0.01 | 95 | 1011.0 |
| 20260507104600 | 42 | 160 | 0.0 | 2.0 | 0.00 | 0.01 | 0.01 | 95 | 1010.9 |
| 20260507104547 | 42 | 0 | 0.0 | 2.0 | 0.00 | 0.01 | 0.01 | 94 | 1012.8 |
| 20260507104506 | 42 | 160 | 0.0 | 2.0 | 0.00 | 0.01 | 0.01 | 95 | 1010.9 |
| 20260507103056 | 43 | 160 | 0.0 | 2.0 | 0.00 | 0.01 | 0.01 | 95 | 1010.9 |
| 20260507103045 | 43 | 160 | 0.0 | 2.0 | 0.00 | 0.01 | 0.01 | 94 | 1012.8 |
| 20260507101548 | 44 | 0 | 0.0 | 2.0 | 0.00 | 0.01 | 0.01 | 94 | 1012.8 |
| 20260507101542 | 44 | 160 | 0.0 | 2.0 | 0.00 | 0.01 | 0.01 | 95 | 1011.0 |
| 20260507100043 | 45 | 0 | 0.0 | 2.0 | 0.00 | 0.01 | 0.01 | 94 | 1012.8 |
| 20260507100022 | 45 | 160 | 0.0 | 2.0 | 0.00 | 0.01 | 0.01 | 94 | 1011.0 |
| 20260507094548 | 46 | 160 | 0.0 | 4.0 | 0.00 | 0.01 | 0.01 | 93 | 1013.0 |
| 20260507094505 | 46 | 160 | 1.0 | 3.0 | 0.00 | 0.01 | 0.01 | 94 | 1011.1 |
| 20260507093101 | 47 | 160 | 0.0 | 3.0 | 0.00 | 0.01 | 0.01 | 94 | 1010.9 |
| 20260507093052 | 47 | 0 | 0.0 | 4.0 | 0.00 | 0.01 | 0.01 | 93 | 1012.8 |
| 20260507091607 | 47 | 0 | 0.0 | 2.0 | 0.00 | 0.01 | 0.01 | 93 | 1013.0 |
| 20260507090046 | 47 | 0 | 0.0 | 2.0 | 0.00 | 0.01 | 0.01 | 93 | 1013.1 |
| 20260507090042 | 47 | 227 | 0.0 | 2.0 | 0.00 | 0.01 | 0.01 | 93 | 1011.2 |
| 20260507084544 | 47 | 254 | 0.0 | 2.0 | 0.00 | 0.01 | 0.01 | 92 | 1013.1 |
| 20260507084537 | 47 | 254 | 1.0 | 2.0 | 0.00 | 0.01 | 0.01 | 93 | 1011.3 |
| 20260507083047 | 47 | 129 | 1.0 | 2.0 | 0.01 | 0.01 | 0.01 | 92 | 1013.0 |
| 20260507083020 | 47 | 130 | 1.0 | 2.0 | 0.01 | 0.01 | 0.01 | 92 | 1011.2 |
| 20260507081547 | 47 | 0 | 0.0 | 2.0 | 0.01 | 0.01 | 0.01 | 91 | 1013.0 |
| 20260507081514 | 47 | 144 | 0.0 | 1.0 | 0.01 | 0.01 | 0.01 | 92 | 1011.2 |
| 20260507080058 | 48 | 140 | 1.0 | 5.0 | 0.01 | 0.01 | 0.01 | 90 | 1011.1 |
| 20260507080056 | 48 | 146 | 0.0 | 5.0 | 0.01 | 0.01 | 0.01 | 89 | 1012.8 |
| 20260507080002 | 48 | 148 | 0.0 | 5.0 | 0.01 | 0.01 | 0.01 | 90 | 1011.1 |
| 20260507074547 | 48 | 232 | 2.0 | 5.0 | 0.01 | 0.01 | 0.01 | 88 | 1012.4 |
| 20260507073048 | 48 | 140 | 1.0 | 3.0 | 0.00 | 0.00 | 0.00 | 85 | 1012.8 |
| 20260507073036 | 48 | 140 | 2.0 | 3.0 | 0.00 | 0.00 | 0.00 | 86 | 1011.3 |
| 20260507071547 | 49 | 64 | 1.0 | 4.0 | 0.00 | 0.00 | 0.00 | 82 | 1012.9 |
| 20260507071524 | 49 | 115 | 0.0 | 4.0 | 0.00 | 0.00 | 0.00 | 82 | 1011.4 |
| 20260507070059 | 50 | 233 | 0.0 | 3.0 | 0.00 | 0.00 | 0.00 | 82 | 1012.9 |
| 20260507070016 | 50 | 233 | 0.0 | 3.0 | 0.00 | 0.00 | 0.00 | 81 | 1011.5 |
| 20260507064546 | 53 | 22 | 3.0 | 11.0 | 0.00 | 0.00 | 0.00 | 68 | 1012.8 |
| 20260507064506 | 53 | 5 | 3.0 | 11.0 | 0.00 | 0.00 | 0.00 | 69 | 1011.5 |
| 20260507063059 | 53 | 200 | 2.0 | 7.0 | 0.00 | 0.00 | 0.00 | 69 | 1011.8 |
| 20260507063041 | 53 | 221 | 2.0 | 8.0 | 0.00 | 0.00 | 0.00 | 68 | 1013.1 |
| 20260507063001 | 53 | 175 | 2.0 | 7.0 | 0.00 | 0.00 | 0.00 | 68 | 1011.8 |
| 20260507061544 | 54 | 232 | 2.0 | 8.0 | 0.00 | 0.00 | 0.00 | 66 | 1012.2 |
| 20260507060030 | 51 | 146 | 2.0 | 4.0 | 0.00 | 0.00 | 0.00 | 74 | 1011.7 |
| 20260507054553 | 49 | 125 | 1.0 | 3.0 | 0.00 | 0.00 | 0.00 | 77 | 1013.1 |
| 20260507054514 | 49 | 130 | 1.0 | 3.0 | 0.00 | 0.00 | 0.00 | 78 | 1011.8 |
| 20260507053100 | 49 | 130 | 0.0 | 2.0 | 0.00 | 0.00 | 0.00 | 77 | 1011.3 |
| 20260507053050 | 49 | 130 | 0.0 | 2.0 | 0.00 | 0.00 | 0.00 | 77 | 1012.5 |
| 20260507051546 | 51 | 110 | 0.0 | 3.0 | 0.00 | 0.00 | 0.00 | 72 | 1011.3 |
| 20260507050043 | 53 | 109 | 0.0 | 3.0 | 0.00 | 0.00 | 0.00 | 71 | 1012.7 |
| 20260507050040 | 53 | 109 | 0.0 | 3.0 | 0.00 | 0.00 | 0.00 | 71 | 1011.4 |
| 20260507044548 | 56 | 31 | 6.0 | 12.0 | 0.00 | 0.00 | 0.00 | 57 | 1012.8 |
| 20260507044526 | 56 | 32 | 6.0 | 12.0 | 0.00 | 0.00 | 0.00 | 58 | 1011.6 |
| 20260507043048 | 58 | 17 | 6.0 | 20.0 | 0.00 | 0.00 | 0.00 | 55 | 1013.0 |
| 20260507043008 | 58 | 26 | 6.0 | 20.0 | 0.00 | 0.00 | 0.00 | 55 | 1011.7 |
| 20260507041549 | 58 | 188 | 0.0 | 2.0 | 0.00 | 0.00 | 0.00 | 62 | 1010.8 |
| 20260507040045 | 57 | 188 | 1.0 | 2.0 | 0.00 | 0.00 | 0.00 | 65 | 1012.0 |
| 20260507040043 | 57 | 188 | 1.0 | 2.0 | 0.00 | 0.00 | 0.00 | 65 | 1010.6 |
| 20260507034554 | 58 | 188 | 0.0 | 2.0 | 0.00 | 0.00 | 0.00 | 62 | 1012.1 |
| 20260507034550 | 58 | 188 | 1.0 | 2.0 | 0.00 | 0.00 | 0.00 | 62 | 1010.8 |
| 20260507033046 | 59 | 175 | 1.0 | 5.0 | 0.00 | 0.00 | 0.00 | 59 | 1011.9 |
| 20260507033030 | 59 | 175 | 0.0 | 5.0 | 0.00 | 0.00 | 0.00 | 60 | 1010.6 |
| 20260507031549 | 60 | 167 | 2.0 | 4.0 | 0.00 | 0.00 | 0.00 | 58 | 1011.9 |
| 20260507031513 | 60 | 163 | 1.0 | 4.0 | 0.00 | 0.00 | 0.00 | 59 | 1010.7 |
| 20260507030058 | 61 | 200 | 0.0 | 3.0 | 0.00 | 0.00 | 0.00 | 57 | 1010.7 |
| 20260507030048 | 61 | 200 | 0.0 | 4.0 | 0.00 | 0.00 | 0.00 | 56 | 1011.8 |
| 20260507024557 | 61 | 294 | 1.0 | 3.0 | 0.00 | 0.00 | 0.00 | 55 | 1010.7 |
| 20260507024555 | 61 | 176 | 1.0 | 4.0 | 0.00 | 0.00 | 0.00 | 55 | 1011.7 |
| 20260507023045 | 62 | 198 | 0.0 | 3.0 | 0.00 | 0.00 | 0.00 | 53 | 1011.7 |
| 20260507021549 | 63 | 226 | 1.0 | 8.0 | 0.00 | 0.00 | 0.00 | 50 | 1011.6 |
| 20260507021537 | 63 | 226 | 1.0 | 8.0 | 0.00 | 0.00 | 0.00 | 51 | 1010.5 |
| 20260507020051 | 64 | 255 | 1.0 | 4.0 | 0.00 | 0.00 | 0.00 | 49 | 1011.5 |
| 20260507020026 | 64 | 254 | 1.0 | 4.0 | 0.00 | 0.00 | 0.00 | 50 | 1010.5 |
| 20260507014545 | 64 | 197 | 0.0 | 5.0 | 0.00 | 0.00 | 0.00 | 47 | 1011.6 |
| 20260507014507 | 64 | 249 | 0.0 | 5.0 | 0.00 | 0.00 | 0.00 | 48 | 1010.6 |
| 20260507013044 | 65 | 265 | 2.0 | 9.0 | 0.00 | 0.00 | 0.00 | 45 | 1011.5 |
| 20260507011548 | 66 | 0 | 2.0 | 13.0 | 0.00 | 0.00 | 0.00 | 44 | 1011.5 |
| 20260507011544 | 66 | 187 | 2.0 | 13.0 | 0.00 | 0.00 | 0.00 | 45 | 1010.6 |
| 20260507010104 | 66 | 252 | 3.0 | 11.0 | 0.00 | 0.00 | 0.00 | 43 | 1011.4 |
| 20260507010024 | 66 | 242 | 3.0 | 11.0 | 0.00 | 0.00 | 0.00 | 43 | 1010.6 |
| 20260507004547 | 66 | 228 | 3.0 | 9.0 | 0.00 | 0.00 | 0.00 | 41 | 1011.5 |
| 20260507004505 | 66 | 226 | 1.0 | 9.0 | 0.00 | 0.00 | 0.00 | 41 | 1010.7 |
| 20260507003056 | 66 | 245 | 1.0 | 7.0 | 0.00 | 0.00 | 0.00 | 42 | 1010.9 |
| 20260507003045 | 66 | 261 | 1.0 | 8.0 | 0.00 | 0.00 | 0.00 | 40 | 1011.7 |
| 20260507001600 | 67 | 186 | 3.0 | 13.0 | 0.00 | 0.00 | 0.00 | 41 | 1011.0 |
| 20260507001554 | 67 | 181 | 3.0 | 13.0 | 0.00 | 0.00 | 0.00 | 40 | 1011.7 |
| 20260507000048 | 67 | 227 | 2.0 | 12.0 | 0.00 | 0.00 | 0.00 | 39 | 1011.6 |
| 20260507000031 | 67 | 197 | 2.0 | 10.0 | 0.00 | 0.00 | 0.00 | 40 | 1011.1 |
| 20260506234555 | 67 | 291 | 2.0 | 8.0 | 0.00 | 0.00 | 0.00 | 39 | 1011.6 |
| 20260506234521 | 67 | 182 | 2.0 | 8.0 | 0.00 | 0.00 | 0.00 | 39 | 1011.0 |
| 20260506233052 | 67 | 208 | 2.0 | 7.0 | 0.00 | 0.00 | 0.00 | 39 | 1011.4 |
| 20260506233016 | 67 | 208 | 2.0 | 7.0 | 0.00 | 0.00 | 0.00 | 39 | 1010.9 |
| 20260506231545 | 66 | 0 | 1.0 | 4.0 | 0.00 | 0.00 | 0.00 | 41 | 1011.5 |
| 20260506231505 | 66 | 155 | 1.0 | 4.0 | 0.00 | 0.00 | 0.00 | 41 | 1011.2 |
| 20260506230052 | 67 | 0 | 1.0 | 6.0 | 0.00 | 0.00 | 0.00 | 39 | 1011.5 |
| 20260506230047 | 67 | 166 | 2.0 | 6.0 | 0.00 | 0.00 | 0.00 | 39 | 1011.4 |
| 20260506224544 | 67 | 228 | 1.0 | 7.0 | 0.00 | 0.00 | 0.00 | 40 | 1011.6 |
| 20260506224536 | 67 | 232 | 1.0 | 5.0 | 0.00 | 0.00 | 0.00 | 40 | 1011.5 |
| 20260506223046 | 68 | 182 | 2.0 | 7.0 | 0.00 | 0.00 | 0.00 | 37 | 1011.7 |
| 20260506223023 | 68 | 271 | 2.0 | 5.0 | 0.00 | 0.00 | 0.00 | 38 | 1011.6 |